Raleigh, NC (27615)

5:18 AM EDT on August 26, 2016 (GMT -0400)
North Ridge - Haymarket | | Change Station

Elev 410 ft 35.89 °N, 78.61 °W | Updated 12 days ago

Clear
Clear
73 °F
Feels Like 73 °F
N
3
Wind Variable Wind from SW
Gusts mph

Today
High -- | Low -- °F
--% Chance of Precip.
Yesterday
High -- | Low -- °F
Precip. -- in
Pressure 30.08 in
Visibility 10.0 miles
Clouds Scattered Clouds 5500 ft
Dew Point 70 °F
Humidity 92%
Rainfall in
Snow Depth Not available.
6:42 AM 7:49 PM
Last Quarter, 36% visible
METAR KRDU 260851Z 23006KT 10SM SCT055 23/21 A3009 RMK AO2 SLP184 T02280211 58000 $
Pressure 30.08 in
Visibility 10.0 miles
Clouds Scattered Clouds 5500 ft
Dew Point 70 °F
Humidity 92%
Rainfall in
Snow Depth Not available.
6:42 AM 7:49 PM
Last Quarter, 36% visible
METAR KRDU 260851Z 23006KT 10SM SCT055 23/21 A3009 RMK AO2 SLP184 T02280211 58000 $

10-Day Weather Forecast

Almanac

Astronomy

Aug. 26, 2016 Rise Set
Actual Time
Civil Twilight
Nautical Twilight
Astronomical Twilight
Moon
Length of Visible Light
Length of Day
Tomorrow will be .
, % of the Moon is Illuminated

Today's Extremes

State Highs State Lows

Community

WunderPhotos

Upload Photos

1,935,069 photos uploaded!

WunderBlog® & News

Nearby

Air Quality

  Air Quality AQ Index Pollutant
Not available.

Snow Depth

Station Depth Elevation

Earthquake Activity

City Distance Mag. Time & Date
Minimum magnitude displayed is 2.5.

Coastal Water Temperatures

Place Temperature

Stations

Nearby Weather Stations

Station Location Temp. Windchill Dew Point Humidity Wind Precip. Elev Updated Type
                   

Watches & Warnings

There are currently no watches in effect.